Time;durP1;ratioP1;P1;durP2;ratioP2;P2;SDS_P1;SDS_P2;PMS_P1;PMS_P2;Temp;Humidity;BMP_temperature;BMP_pressure;BME280_temperature;BME280_humidity;BME280_pressure;Samples;Min_cycle;Max_cycle;Signal;HPM_P1;HPM_P2
2022/10/05 00:01:31;;;;;;;11.13;4.57;;;;;;;;;;5038712;28;20078;-83
2022/10/05 00:04:10;;;;;;;11.65;5.50;;;;;;;;;;5038529;28;20605;-82
2022/10/05 00:06:36;;;;;;;8.48;4.45;;;;;;;;;;5038630;28;20094;-78
2022/10/05 00:09:08;;;;;;;14.25;5.28;;;;;;;;;;5038959;28;20394;-80
2022/10/05 00:11:34;;;;;;;16.73;7.53;;;;;;;;;;5038596;28;20029;-82
2022/10/05 00:14:01;;;;;;;27.08;10.90;;;;;;;;;;5056466;28;20389;-78
2022/10/05 00:16:28;;;;;;;16.77;6.68;;;;;;;;;;5038285;28;20060;-82
2022/10/05 00:18:54;;;;;;;25.65;9.35;;;;;;;;;;5038408;28;20401;-81
2022/10/05 00:21:23;;;;;;;21.05;7.43;;;;;;;;;;5038287;28;20473;-82
2022/10/05 00:23:49;;;;;;;18.83;7.05;;;;;;;;;;5038398;28;20083;-83
2022/10/05 00:26:26;;;;;;;14.93;6.40;;;;;;;;;;5038093;28;20025;-81
2022/10/05 00:28:52;;;;;;;12.93;5.85;;;;;;;;;;5038428;28;20052;-82
2022/10/05 00:31:22;;;;;;;14.80;6.25;;;;;;;;;;5038248;28;20083;-82
2022/10/05 00:33:48;;;;;;;18.52;5.95;;;;;;;;;;5056461;28;20029;-82
2022/10/05 00:36:14;;;;;;;18.25;6.40;;;;;;;;;;5037800;28;20021;-82
2022/10/05 00:38:41;;;;;;;13.30;6.38;;;;;;;;;;5037800;28;20060;-80
2022/10/05 00:41:25;;;;;;;12.70;6.30;;;;;;;;;;5055893;28;20033;-82
2022/10/05 00:44:00;;;;;;;7.90;4.10;;;;;;;;;;5037955;28;20033;-82
2022/10/05 00:46:33;;;;;;;8.18;4.38;;;;;;;;;;5055481;28;20064;-81
2022/10/05 00:49:19;;;;;;;7.82;3.78;;;;;;;;;;5055858;28;20100;-83
2022/10/05 00:51:51;;;;;;;7.47;3.60;;;;;;;;;;4998451;28;20063;-81
2022/10/05 00:54:36;;;;;;;14.00;4.03;;;;;;;;;;5037848;28;20036;-82
2022/10/05 00:57:02;;;;;;;8.00;3.85;;;;;;;;;;5037727;28;20067;-82
2022/10/05 00:59:38;;;;;;;7.45;3.75;;;;;;;;;;5055227;28;20033;-81
2022/10/05 01:02:23;;;;;;;10.48;4.50;;;;;;;;;;5037590;28;20025;-81
2022/10/05 01:04:49;;;;;;;16.67;4.05;;;;;;;;;;5037705;28;20036;-81
2022/10/05 01:07:22;;;;;;;9.38;4.78;;;;;;;;;;5037331;28;20120;-82
2022/10/05 01:09:59;;;;;;;7.83;3.90;;;;;;;;;;5055224;28;20028;-82
2022/10/05 01:12:31;;;;;;;8.48;3.38;;;;;;;;;;5037473;28;20255;-82
2022/10/05 01:15:03;;;;;;;7.55;4.15;;;;;;;;;;5037704;28;20112;-82
2022/10/05 01:17:32;;;;;;;9.55;3.83;;;;;;;;;;5037443;28;20206;-77
2022/10/05 01:20:02;;;;;;;12.38;3.95;;;;;;;;;;5037580;28;20079;-82
2022/10/05 01:22:43;;;;;;;6.97;3.90;;;;;;;;;;5036937;28;20063;-82
2022/10/05 01:25:30;;;;;;;8.52;4.15;;;;;;;;;;5037087;28;20035;-82
2022/10/05 01:27:56;;;;;;;7.38;3.20;;;;;;;;;;5023275;28;20048;-82
2022/10/05 01:30:22;;;;;;;7.65;3.63;;;;;;;;;;5037330;28;20052;-82
2022/10/05 01:32:48;;;;;;;7.68;4.55;;;;;;;;;;5037282;28;20021;-82
2022/10/05 01:35:17;;;;;;;6.93;3.88;;;;;;;;;;5037452;28;20036;-75
2022/10/05 01:37:49;;;;;;;9.98;3.45;;;;;;;;;;5036877;28;20021;-79
2022/10/05 01:40:22;;;;;;;5.07;3.08;;;;;;;;;;5037120;28;20026;-81
2022/10/05 01:42:54;;;;;;;9.43;3.03;;;;;;;;;;5036904;28;20541;-82
2022/10/05 01:45:24;;;;;;;15.27;4.78;;;;;;;;;;5036871;28;20120;-82
2022/10/05 01:47:51;;;;;;;8.40;4.30;;;;;;;;;;5035809;28;20056;-81
2022/10/05 01:50:25;;;;;;;15.15;5.05;;;;;;;;;;5036915;28;20159;-80
2022/10/05 01:53:07;;;;;;;14.23;5.25;;;;;;;;;;5036964;28;20064;-81
2022/10/05 01:55:42;;;;;;;17.75;6.40;;;;;;;;;;5036641;28;20389;-80
2022/10/05 01:58:22;;;;;;;26.30;9.75;;;;;;;;;;5036512;28;20037;-82
2022/10/05 02:00:55;;;;;;;18.23;7.25;;;;;;;;;;5036892;28;20021;-81
2022/10/05 02:03:24;;;;;;;20.48;7.35;;;;;;;;;;5036755;28;20029;-83
2022/10/05 02:06:20;;;;;;;16.10;7.90;;;;;;;;;;5036614;28;20028;-83
2022/10/05 02:08:46;;;;;;;27.15;6.95;;;;;;;;;;5020240;28;20032;-75
2022/10/05 02:11:16;;;;;;;20.08;8.40;;;;;;;;;;5036823;28;20032;-82
2022/10/05 02:13:54;;;;;;;14.52;7.00;;;;;;;;;;5036328;28;20025;-81
2022/10/05 02:16:46;;;;;;;17.98;6.68;;;;;;;;;;5036593;28;20025;-84
2022/10/05 02:19:19;;;;;;;19.42;7.85;;;;;;;;;;5050323;28;20478;-84
2022/10/05 02:21:48;;;;;;;13.65;6.95;;;;;;;;;;5036261;28;20027;-83
2022/10/05 02:24:21;;;;;;;13.50;6.50;;;;;;;;;;5036413;28;20037;-83
2022/10/05 02:26:48;;;;;;;21.52;6.55;;;;;;;;;;5036009;28;20238;-82
2022/10/05 02:29:16;;;;;;;13.45;6.07;;;;;;;;;;5053935;28;20021;-83
2022/10/05 02:31:45;;;;;;;14.77;4.88;;;;;;;;;;5035950;28;20029;-82
2022/10/05 02:34:22;;;;;;;7.55;3.60;;;;;;;;;;5036088;28;20381;-83
2022/10/05 02:36:51;;;;;;;10.95;4.75;;;;;;;;;;5035677;28;20023;-82
2022/10/05 02:39:17;;;;;;;16.50;5.72;;;;;;;;;;5035857;28;20119;-83
2022/10/05 02:41:43;;;;;;;9.68;4.50;;;;;;;;;;5053600;28;20037;-83
2022/10/05 02:44:24;;;;;;;11.48;5.07;;;;;;;;;;5053693;28;20351;-83
2022/10/05 02:47:09;;;;;;;6.95;3.47;;;;;;;;;;5035647;28;20064;-83
2022/10/05 02:49:47;;;;;;;14.30;5.30;;;;;;;;;;5036008;28;20029;-83
2022/10/05 02:52:32;;;;;;;13.48;4.90;;;;;;;;;;5035973;28;20044;-84
2022/10/05 02:54:59;;;;;;;11.18;4.72;;;;;;;;;;5035912;28;20040;-81
2022/10/05 02:57:33;;;;;;;10.77;5.22;;;;;;;;;;5035438;28;20032;-78
2022/10/05 03:00:06;;;;;;;12.63;5.80;;;;;;;;;;5053659;28;20102;-82
2022/10/05 03:02:39;;;;;;;11.07;5.82;;;;;;;;;;5035741;28;20363;-84
2022/10/05 03:05:05;;;;;;;12.35;4.82;;;;;;;;;;5035624;28;20029;-83
2022/10/05 03:07:51;;;;;;;14.15;5.63;;;;;;;;;;5035262;28;20044;-84
2022/10/05 03:10:29;;;;;;;18.98;6.72;;;;;;;;;;5053291;28;20021;-82
2022/10/05 03:13:05;;;;;;;12.00;5.80;;;;;;;;;;5036018;28;20025;-83
2022/10/05 03:15:40;;;;;;;12.63;5.03;;;;;;;;;;5053749;28;20359;-83
2022/10/05 03:18:19;;;;;;;10.88;4.60;;;;;;;;;;5036059;28;20025;-83
2022/10/05 03:20:51;;;;;;;14.05;6.43;;;;;;;;;;5035817;28;20098;-83
2022/10/05 03:23:24;;;;;;;14.93;6.25;;;;;;;;;;5035678;28;20021;-83
2022/10/05 03:26:16;;;;;;;16.30;6.00;;;;;;;;;;5035632;28;20075;-83
2022/10/05 03:29:00;;;;;;;34.78;5.28;;;;;;;;;;5035355;28;20047;-83
2022/10/05 03:31:36;;;;;;;15.18;4.80;;;;;;;;;;5035380;28;20025;-82
2022/10/05 03:34:10;;;;;;;8.80;5.28;;;;;;;;;;5035354;28;20029;-84
2022/10/05 03:36:54;;;;;;;9.85;4.40;;;;;;;;;;5035337;28;20432;-83
2022/10/05 03:39:41;;;;;;;9.60;3.47;;;;;;;;;;5035137;28;20063;-83
2022/10/05 03:42:13;;;;;;;8.10;3.15;;;;;;;;;;5035083;28;20411;-84
2022/10/05 03:44:42;;;;;;;12.15;4.07;;;;;;;;;;5035473;28;20036;-83
2022/10/05 03:47:27;;;;;;;10.88;4.05;;;;;;;;;;5035075;28;20049;-82
2022/10/05 03:49:53;;;;;;;7.03;2.85;;;;;;;;;;5053094;28;20021;-83
2022/10/05 03:52:28;;;;;;;10.75;3.22;;;;;;;;;;5039025;28;20121;-84
2022/10/05 03:55:15;;;;;;;6.22;3.10;;;;;;;;;;5036097;28;20029;-83
2022/10/05 03:57:42;;;;;;;5.40;2.97;;;;;;;;;;5035131;28;20030;-83
2022/10/05 04:00:17;;;;;;;10.52;4.07;;;;;;;;;;5035110;28;20033;-78
2022/10/05 04:02:45;;;;;;;10.35;3.58;;;;;;;;;;5035055;28;20029;-83
2022/10/05 04:05:14;;;;;;;8.25;3.58;;;;;;;;;;5034841;28;20116;-83
2022/10/05 04:07:45;;;;;;;7.47;3.67;;;;;;;;;;5035002;28;20037;-78
2022/10/05 04:10:21;;;;;;;8.75;3.58;;;;;;;;;;5036116;28;20112;-82
2022/10/05 04:12:50;;;;;;;9.65;3.97;;;;;;;;;;5038570;28;20021;-83
2022/10/05 04:15:30;;;;;;;7.68;3.72;;;;;;;;;;5038655;28;20029;-83
2022/10/05 04:18:02;;;;;;;8.98;3.83;;;;;;;;;;5038893;28;20021;-83
2022/10/05 04:20:31;;;;;;;22.55;3.83;;;;;;;;;;5038530;28;20166;-83
2022/10/05 04:23:02;;;;;;;6.30;3.88;;;;;;;;;;5038602;28;20025;-84
2022/10/05 04:25:30;;;;;;;10.60;4.32;;;;;;;;;;5038195;28;20029;-81
2022/10/05 04:28:04;;;;;;;10.40;4.13;;;;;;;;;;5037953;28;20036;-81
2022/10/05 04:30:31;;;;;;;11.15;4.50;;;;;;;;;;5037975;28;20082;-80
2022/10/05 04:32:59;;;;;;;8.50;4.38;;;;;;;;;;5037666;28;20082;-76
2022/10/05 04:35:31;;;;;;;10.00;4.40;;;;;;;;;;5037684;28;20143;-83
2022/10/05 04:38:15;;;;;;;9.82;4.13;;;;;;;;;;5037540;28;20107;-81
2022/10/05 04:40:47;;;;;;;10.73;4.45;;;;;;;;;;5037987;28;20476;-82
2022/10/05 04:43:21;;;;;;;6.80;3.95;;;;;;;;;;5038265;28;20056;-83
2022/10/05 04:46:07;;;;;;;9.35;4.45;;;;;;;;;;5038331;28;20035;-83
2022/10/05 04:48:33;;;;;;;10.70;4.93;;;;;;;;;;4998465;28;20501;-83
2022/10/05 04:51:16;;;;;;;8.48;4.65;;;;;;;;;;5037887;28;20021;-82
2022/10/05 04:54:05;;;;;;;8.43;4.22;;;;;;;;;;5037951;28;20032;-83
2022/10/05 04:56:37;;;;;;;10.48;4.38;;;;;;;;;;5037362;28;20024;-80
2022/10/05 04:59:03;;;;;;;9.90;4.15;;;;;;;;;;5037205;28;20394;-76
2022/10/05 05:01:48;;;;;;;12.07;5.15;;;;;;;;;;5055112;28;20104;-79
2022/10/05 05:04:34;;;;;;;9.98;4.18;;;;;;;;;;5037211;28;20040;-80
2022/10/05 05:07:13;;;;;;;10.18;5.32;;;;;;;;;;4997642;28;20071;-81
2022/10/05 05:09:54;;;;;;;12.48;5.57;;;;;;;;;;5055056;28;20029;-79
2022/10/05 05:12:38;;;;;;;15.55;6.78;;;;;;;;;;5054854;28;20043;-78
2022/10/05 05:15:24;;;;;;;35.55;6.80;;;;;;;;;;5037082;28;20106;-81
2022/10/05 05:18:03;;;;;;;22.67;7.35;;;;;;;;;;5037496;28;20035;-78
2022/10/05 05:20:41;;;;;;;26.35;7.30;;;;;;;;;;5036488;28;20128;-77
2022/10/05 05:23:26;;;;;;;21.75;7.13;;;;;;;;;;5039967;28;20479;-79
2022/10/05 05:26:11;;;;;;;17.58;7.93;;;;;;;;;;5016432;28;20026;-79
2022/10/05 05:28:56;;;;;;;19.20;7.60;;;;;;;;;;5033992;28;20020;-78
2022/10/05 05:31:44;;;;;;;15.52;7.43;;;;;;;;;;5033282;28;20034;-78
2022/10/05 05:34:29;;;;;;;29.42;8.25;;;;;;;;;;5017030;28;20033;-78
2022/10/05 05:37:01;;;;;;;15.73;7.40;;;;;;;;;;5017123;28;20029;-79
2022/10/05 05:39:29;;;;;;;14.48;7.30;;;;;;;;;;5023092;28;20060;-84
2022/10/05 05:41:59;;;;;;;19.30;7.45;;;;;;;;;;5036662;28;20021;-78
2022/10/05 05:44:27;;;;;;;19.83;8.48;;;;;;;;;;5054818;28;20029;-86
2022/10/05 05:46:58;;;;;;;22.85;6.90;;;;;;;;;;5032596;28;20054;-78
2022/10/05 05:49:30;;;;;;;19.55;7.90;;;;;;;;;;5032935;28;20029;-81
2022/10/05 05:52:20;;;;;;;20.77;7.90;;;;;;;;;;5031202;28;20068;-82
2022/10/05 05:54:50;;;;;;;22.70;7.32;;;;;;;;;;5021796;28;20064;-82
2022/10/05 05:57:22;;;;;;;19.05;7.80;;;;;;;;;;5013094;28;20076;-82
2022/10/05 06:00:16;;;;;;;25.73;8.02;;;;;;;;;;5013426;28;20053;-82
2022/10/05 06:02:45;;;;;;;30.65;7.47;;;;;;;;;;5013137;28;20026;-78
2022/10/05 06:05:20;;;;;;;23.45;7.72;;;;;;;;;;5012899;28;20036;-77
2022/10/05 06:07:47;;;;;;;19.15;7.40;;;;;;;;;;5012763;28;20093;-82
2022/10/05 06:10:25;;;;;;;14.50;6.75;;;;;;;;;;5013072;28;20029;-79
2022/10/05 06:12:52;;;;;;;20.88;7.32;;;;;;;;;;5012993;28;20097;-80
2022/10/05 06:15:18;;;;;;;17.05;7.35;;;;;;;;;;5012993;28;20050;-83
2022/10/05 06:17:51;;;;;;;20.48;6.97;;;;;;;;;;5032219;28;20026;-77
2022/10/05 06:20:37;;;;;;;16.42;6.80;;;;;;;;;;5033718;28;20044;-79
2022/10/05 06:23:07;;;;;;;12.52;6.35;;;;;;;;;;5022459;28;20038;-78
2022/10/05 06:25:43;;;;;;;16.08;7.57;;;;;;;;;;5032164;28;20034;-79
2022/10/05 06:28:13;;;;;;;14.43;6.32;;;;;;;;;;5032828;28;20095;-77
2022/10/05 06:30:55;;;;;;;13.70;6.70;;;;;;;;;;5032903;28;20030;-81
2022/10/05 06:33:38;;;;;;;12.05;6.85;;;;;;;;;;5030550;28;20041;-78
2022/10/05 06:36:23;;;;;;;15.90;6.93;;;;;;;;;;5033229;28;20060;-78
2022/10/05 06:39:08;;;;;;;12.75;6.93;;;;;;;;;;5031761;28;20029;-77
2022/10/05 06:41:40;;;;;;;13.57;6.40;;;;;;;;;;5031369;28;20461;-80
2022/10/05 06:44:12;;;;;;;17.35;7.40;;;;;;;;;;5033148;28;20026;-77
2022/10/05 06:46:38;;;;;;;11.90;6.00;;;;;;;;;;5031306;28;20049;-79
2022/10/05 07:06:40;;;;;;;;;;;;;;;;;;;;;
2022/10/05 07:09:27;;;;;;;15.60;6.78;;;;;;;;;;4996722;28;20030;-96
2022/10/05 07:12:31;;;;;;;12.10;6.50;;;;;;;;;;4979943;28;20503;-94
2022/10/05 07:15:16;;;;;;;14.13;7.03;;;;;;;;;;4885285;29;20028;-95
2022/10/05 07:17:57;;;;;;;11.52;7.28;;;;;;;;;;4902057;29;20028;-94
2022/10/05 07:20:45;;;;;;;13.52;8.00;;;;;;;;;;4964828;28;20018;-93
2022/10/05 07:23:18;;;;;;;16.88;7.50;;;;;;;;;;4994180;28;20037;-94
2022/10/05 07:26:03;;;;;;;14.48;8.40;;;;;;;;;;5000831;28;20026;-95
2022/10/05 07:32:13;;;;;;;16.70;9.02;;;;;;;;;;4919116;29;20521;-95
2022/10/05 07:34:55;;;;;;;;;;;;;;;;;;;;;
2022/10/05 07:41:07;;;;;;;14.77;8.50;;;;;;;;;;4877304;29;20045;-94
2022/10/05 07:43:41;;;;;;;14.60;8.63;;;;;;;;;;4940723;28;20041;-94
2022/10/05 07:46:42;;;;;;;16.30;9.82;;;;;;;;;;4981360;28;20036;-93
2022/10/05 07:49:17;;;;;;;20.50;8.90;;;;;;;;;;4964491;28;20038;-93
2022/10/05 07:52:04;;;;;;;11.82;7.50;;;;;;;;;;5001892;28;20022;-95
2022/10/05 07:54:45;;;;;;;10.75;6.53;;;;;;;;;;5002335;28;20538;-94
2022/10/05 08:01:21;;;;;;;;;;;;;;;;;;;;;
2022/10/05 10:45:57;;;;;;;3.95;0.88;;;;;;;;;;5144659;23;20043;-80
2022/10/05 10:48:24;;;;;;;3.22;0.95;;;;;;;;;;4969567;28;20062;-76
2022/10/05 10:50:59;;;;;;;3.45;1.10;;;;;;;;;;4969685;28;20024;-76
2022/10/05 10:53:44;;;;;;;4.75;1.70;;;;;;;;;;4937614;29;20039;-77
2022/10/05 10:56:19;;;;;;;6.65;2.92;;;;;;;;;;4937629;29;20038;-77
2022/10/05 10:59:16;;;;;;;3.65;1.23;;;;;;;;;;4937478;29;20572;-77
2022/10/05 11:02:11;;;;;;;7.28;2.90;;;;;;;;;;4903676;29;20607;-79
2022/10/05 11:04:43;;;;;;;2.75;1.00;;;;;;;;;;4927087;29;20486;-79
2022/10/05 11:07:28;;;;;;;1.67;0.80;;;;;;;;;;4918588;29;20485;-81
2022/10/05 11:09:57;;;;;;;5.18;0.90;;;;;;;;;;4935639;29;20027;-76
2022/10/05 11:12:43;;;;;;;1.77;0.90;;;;;;;;;;4935196;29;20024;-82
2022/10/05 11:15:19;;;;;;;5.40;0.98;;;;;;;;;;4935473;29;20024;-80
2022/10/05 11:17:57;;;;;;;2.72;1.00;;;;;;;;;;4936293;29;20476;-85
2022/10/05 11:20:50;;;;;;;1.23;0.60;;;;;;;;;;4922004;29;20027;-74
2022/10/05 11:23:35;;;;;;;7.85;1.13;;;;;;;;;;4922308;29;20501;-79
2022/10/05 11:26:07;;;;;;;2.78;0.80;;;;;;;;;;4939072;29;20036;-87
2022/10/05 11:28:51;;;;;;;3.87;1.03;;;;;;;;;;4946082;28;20125;-88
2022/10/05 11:31:39;;;;;;;3.63;0.70;;;;;;;;;;4960802;28;20058;-83
2022/10/05 11:34:27;;;;;;;6.35;1.15;;;;;;;;;;4978136;28;20078;-77
2022/10/05 11:37:12;;;;;;;2.50;0.95;;;;;;;;;;4977661;28;20027;-82
2022/10/05 11:39:57;;;;;;;2.05;0.90;;;;;;;;;;4973582;28;20042;-76
2022/10/05 11:42:35;;;;;;;4.93;1.08;;;;;;;;;;4958364;29;20030;-78
2022/10/05 11:45:23;;;;;;;1.70;0.80;;;;;;;;;;4958081;29;20141;-76
2022/10/05 11:48:10;;;;;;;2.75;1.08;;;;;;;;;;4958195;29;20063;-76
2022/10/05 11:50:42;;;;;;;4.45;1.08;;;;;;;;;;4940610;29;20035;-79
2022/10/05 11:53:21;;;;;;;2.03;1.00;;;;;;;;;;4940529;29;20062;-79
2022/10/05 11:55:56;;;;;;;2.95;0.90;;;;;;;;;;4958085;29;20114;-79
2022/10/05 11:58:25;;;;;;;3.05;0.90;;;;;;;;;;4940523;29;20023;-76
2022/10/05 12:01:05;;;;;;;3.25;1.17;;;;;;;;;;4940721;29;20088;-78
2022/10/05 12:03:50;;;;;;;3.22;1.25;;;;;;;;;;4957712;29;20064;-79
2022/10/05 12:06:22;;;;;;;4.18;1.20;;;;;;;;;;4940547;29;20027;-78
2022/10/05 12:09:07;;;;;;;3.97;0.80;;;;;;;;;;4957749;28;20074;-78
2022/10/05 12:11:39;;;;;;;2.10;1.00;;;;;;;;;;4940160;29;20130;-78
2022/10/05 12:14:08;;;;;;;2.30;1.10;;;;;;;;;;4940235;29;20035;-78
2022/10/05 12:16:40;;;;;;;3.97;1.38;;;;;;;;;;4957609;29;20031;-78
2022/10/05 12:19:13;;;;;;;2.90;1.10;;;;;;;;;;4957607;29;20069;-79
2022/10/05 12:22:03;;;;;;;5.65;1.20;;;;;;;;;;4940319;29;20027;-80
2022/10/05 12:24:35;;;;;;;3.72;0.80;;;;;;;;;;4957510;29;20454;-81
2022/10/05 12:27:04;;;;;;;3.83;1.10;;;;;;;;;;4940100;29;20129;-82
2022/10/05 12:29:54;;;;;;;5.38;1.30;;;;;;;;;;4939831;29;20079;-82
2022/10/05 12:32:33;;;;;;;8.05;1.23;;;;;;;;;;4931702;29;20059;-78
2022/10/05 12:35:02;;;;;;;2.78;1.10;;;;;;;;;;4944441;28;20114;-78
2022/10/05 12:37:39;;;;;;;5.68;1.15;;;;;;;;;;4947984;28;20050;-79
2022/10/05 12:40:16;;;;;;;3.00;1.20;;;;;;;;;;4960691;28;20023;-78
2022/10/05 12:42:45;;;;;;;2.88;1.33;;;;;;;;;;4962465;28;20437;-82
2022/10/05 12:45:26;;;;;;;3.83;1.23;;;;;;;;;;4964827;28;20054;-82
2022/10/05 12:48:04;;;;;;;4.38;1.48;;;;;;;;;;4964795;28;20166;-80
2022/10/05 12:50:41;;;;;;;6.82;1.23;;;;;;;;;;4947443;28;20027;-77
2022/10/05 12:53:16;;;;;;;3.13;1.25;;;;;;;;;;4963311;28;20027;-80
2022/10/05 12:55:48;;;;;;;2.40;1.08;;;;;;;;;;4947755;28;20026;-76
2022/10/05 12:58:33;;;;;;;3.13;1.30;;;;;;;;;;4958597;28;20038;-79
2022/10/05 13:01:03;;;;;;;3.45;1.17;;;;;;;;;;4947412;29;20437;-83
2022/10/05 13:03:42;;;;;;;3.78;1.20;;;;;;;;;;4939822;29;20031;-78
2022/10/05 13:06:29;;;;;;;3.15;1.23;;;;;;;;;;4939514;29;20028;-81
2022/10/05 13:09:01;;;;;;;3.85;1.40;;;;;;;;;;4963650;28;20055;-80
2022/10/05 13:11:31;;;;;;;11.10;1.45;;;;;;;;;;4955766;28;20038;-82
2022/10/05 13:13:57;;;;;;;3.30;1.25;;;;;;;;;;4958697;28;20145;-81
2022/10/05 13:16:30;;;;;;;3.33;1.48;;;;;;;;;;4958565;28;20027;-82
2022/10/05 13:18:57;;;;;;;;;;;;;;;;;;4976111;28;20546;-87
2022/10/05 13:21:32;;;;;;;3.25;1.20;;;;;;;;;;4958554;28;19906;-83
2022/10/05 13:24:25;;;;;;;7.18;2.05;;;;;;;;;;4958757;28;20034;-78
2022/10/05 13:27:00;;;;;;;4.70;1.38;;;;;;;;;;4955897;28;20137;-82
2022/10/05 13:29:36;;;;;;;4.63;1.48;;;;;;;;;;4958534;28;20088;-78
2022/10/05 13:32:22;;;;;;;5.88;1.35;;;;;;;;;;4975432;28;20029;-83
2022/10/05 13:34:48;;;;;;;4.60;1.35;;;;;;;;;;4958207;28;20451;-82
2022/10/05 13:37:14;;;;;;;5.40;1.40;;;;;;;;;;4957841;28;20333;-80
2022/10/05 13:39:59;;;;;;;2.78;1.38;;;;;;;;;;4953551;29;20031;-81
2022/10/05 13:42:33;;;;;;;10.63;1.42;;;;;;;;;;4938918;29;20501;-77
2022/10/05 13:45:02;;;;;;;3.30;1.30;;;;;;;;;;4955955;29;20110;-78
2022/10/05 13:47:31;;;;;;;5.30;1.40;;;;;;;;;;4938827;29;20075;-81
2022/10/05 13:50:17;;;;;;;8.00;1.20;;;;;;;;;;4955880;28;20034;-81
2022/10/05 13:52:51;;;;;;;7.28;1.45;;;;;;;;;;4945922;29;20519;-80
2022/10/05 13:55:18;;;;;;;5.50;1.58;;;;;;;;;;4938667;29;20023;-78
2022/10/05 13:57:44;;;;;;;2.53;1.30;;;;;;;;;;4938558;29;20050;-80
2022/10/05 14:00:15;;;;;;;6.63;1.50;;;;;;;;;;4938435;29;20465;-81
2022/10/05 14:02:42;;;;;;;4.25;1.52;;;;;;;;;;4938407;29;20035;-79
2022/10/05 14:05:16;;;;;;;4.82;1.58;;;;;;;;;;4938660;29;20030;-80
2022/10/05 14:07:50;;;;;;;5.03;1.50;;;;;;;;;;4938354;29;20043;-78
2022/10/05 14:10:30;;;;;;;3.28;1.30;;;;;;;;;;4937083;29;20019;-76
2022/10/05 14:12:56;;;;;;;6.10;1.80;;;;;;;;;;4938092;29;20064;-83
2022/10/05 14:15:30;;;;;;;4.07;1.27;;;;;;;;;;4955394;29;20380;-83
2022/10/05 14:17:56;;;;;;;6.03;1.63;;;;;;;;;;4938293;29;20493;-84
2022/10/05 14:20:25;;;;;;;5.35;1.60;;;;;;;;;;4955846;29;20031;-80
2022/10/05 14:22:53;;;;;;;7.40;1.70;;;;;;;;;;4956344;28;20035;-82
2022/10/05 14:25:19;;;;;;;7.18;1.48;;;;;;;;;;4969803;28;20054;-82
2022/10/05 14:27:55;;;;;;;3.78;1.63;;;;;;;;;;4962251;28;20032;-81
2022/10/05 14:30:23;;;;;;;4.45;1.90;;;;;;;;;;4970437;28;20050;-84
2022/10/05 14:32:55;;;;;;;3.53;1.65;;;;;;;;;;4961723;28;20035;-82
2022/10/05 14:35:22;;;;;;;2.28;1.33;;;;;;;;;;4956537;28;20054;-81
2022/10/05 14:37:50;;;;;;;3.40;1.35;;;;;;;;;;4957430;28;20540;-77
2022/10/05 14:40:25;;;;;;;6.50;1.65;;;;;;;;;;4958431;28;20042;-81
2022/10/05 14:42:51;;;;;;;6.57;1.65;;;;;;;;;;4975243;28;20035;-85
2022/10/05 14:45:19;;;;;;;6.20;1.52;;;;;;;;;;4942003;29;20074;-86
2022/10/05 14:47:48;;;;;;;3.67;1.55;;;;;;;;;;4955755;28;20077;-85
2022/10/05 14:50:20;;;;;;;6.40;1.70;;;;;;;;;;4959090;28;20050;-90
2022/10/05 14:53:20;;;;;;;3.03;1.30;;;;;;;;;;4975857;28;20044;-85
2022/10/05 14:55:55;;;;;;;4.00;1.50;;;;;;;;;;4927434;28;20045;-85
2022/10/05 14:58:40;;;;;;;3.17;1.67;;;;;;;;;;4975229;28;20420;-87
2022/10/05 15:01:12;;;;;;;6.85;1.95;;;;;;;;;;4958425;28;20411;-88
2022/10/05 15:03:39;;;;;;;3.85;1.50;;;;;;;;;;4975935;28;20061;-80
2022/10/05 15:06:09;;;;;;;3.03;1.40;;;;;;;;;;4957503;28;20089;-85
2022/10/05 15:08:40;;;;;;;3.83;1.55;;;;;;;;;;4959614;28;20046;-84
2022/10/05 15:11:08;;;;;;;6.18;1.77;;;;;;;;;;4943210;29;20042;-85
2022/10/05 15:13:37;;;;;;;5.15;1.88;;;;;;;;;;4948787;28;20038;-85
2022/10/05 15:16:23;;;;;;;5.32;1.90;;;;;;;;;;4953317;28;20095;-89
2022/10/05 15:19:04;;;;;;;5.80;1.90;;;;;;;;;;4941827;28;20093;-78
2022/10/05 15:21:30;;;;;;;7.72;2.38;;;;;;;;;;4941197;28;20023;-84
2022/10/05 15:24:01;;;;;;;3.65;1.77;;;;;;;;;;4968190;28;20027;-82
2022/10/05 15:26:27;;;;;;;7.88;2.33;;;;;;;;;;4943845;28;20042;-88
2022/10/05 15:29:16;;;;;;;7.95;2.60;;;;;;;;;;4948698;29;20062;-78
2022/10/05 15:31:42;;;;;;;7.68;2.75;;;;;;;;;;4910720;29;20028;-80
2022/10/05 15:34:14;;;;;;;6.30;3.42;;;;;;;;;;4937286;29;20118;-78
2022/10/05 15:36:56;;;;;;;5.10;2.30;;;;;;;;;;4939863;28;20051;-79
2022/10/05 15:39:35;;;;;;;9.00;3.50;;;;;;;;;;4947873;28;20380;-79
2022/10/05 15:42:03;;;;;;;6.43;3.70;;;;;;;;;;4940051;29;20606;-78
2022/10/05 15:44:41;;;;;;;9.73;4.57;;;;;;;;;;4947860;28;20105;-78
2022/10/05 15:47:43;;;;;;;12.30;4.68;;;;;;;;;;4937179;29;20044;-78
2022/10/05 15:50:12;;;;;;;13.30;4.28;;;;;;;;;;4876751;29;20226;-73
2022/10/05 15:52:38;;;;;;;10.80;4.38;;;;;;;;;;4923841;29;20039;-74
2022/10/05 15:55:04;;;;;;;10.55;5.22;;;;;;;;;;4937195;29;20070;-73
2022/10/05 15:57:58;;;;;;;10.15;4.72;;;;;;;;;;4936864;29;20476;-73
2022/10/05 16:00:25;;;;;;;8.30;4.45;;;;;;;;;;4912538;29;20054;-73
2022/10/05 16:02:51;;;;;;;8.50;4.68;;;;;;;;;;4954545;29;20083;-73
2022/10/05 16:08:49;;;;;;;11.02;4.05;;;;;;;;;;4936993;29;20035;-75
2022/10/05 16:11:00;;;;;;;5.13;3.25;;;;;;;;;;4958345;29;20544;-79
2022/10/05 16:13:40;;;;;;;9.27;3.58;;;;;;;;;;4940538;29;20035;-80
2022/10/05 16:16:19;;;;;;;8.48;3.40;;;;;;;;;;4940915;29;20054;-78
2022/10/05 16:19:08;;;;;;;13.57;4.20;;;;;;;;;;4941246;29;20023;-78
2022/10/05 16:21:59;;;;;;;10.50;4.10;;;;;;;;;;4941196;29;20055;-89
2022/10/05 16:24:48;;;;;;;11.52;5.30;;;;;;;;;;4941274;29;20035;-78
2022/10/05 16:27:23;;;;;;;5.85;3.20;;;;;;;;;;4940245;29;20388;-80
2022/10/05 16:29:53;;;;;;;12.73;5.05;;;;;;;;;;4957343;29;20023;-77
2022/10/05 16:32:33;;;;;;;7.10;3.70;;;;;;;;;;4940323;29;20477;-78
2022/10/05 16:35:18;;;;;;;9.45;3.83;;;;;;;;;;4940960;29;20059;-78
2022/10/05 16:37:56;;;;;;;11.35;3.55;;;;;;;;;;4940327;29;20441;-76
2022/10/05 16:40:34;;;;;;;15.05;5.30;;;;;;;;;;4957553;29;20023;-77
2022/10/05 16:43:05;;;;;;;9.88;5.53;;;;;;;;;;4940099;29;20118;-76
2022/10/05 16:45:34;;;;;;;11.30;5.57;;;;;;;;;;4939898;29;20497;-76
2022/10/05 16:48:06;;;;;;;11.30;5.45;;;;;;;;;;4940043;29;20400;-76
2022/10/05 16:50:37;;;;;;;12.50;5.38;;;;;;;;;;4957099;29;20094;-75
2022/10/05 16:53:25;;;;;;;11.05;5.85;;;;;;;;;;4940022;29;20122;-73
2022/10/05 16:55:55;;;;;;;16.30;7.32;;;;;;;;;;4957735;29;20066;-76
2022/10/05 16:58:28;;;;;;;14.13;7.53;;;;;;;;;;4957158;29;20046;-79
2022/10/05 17:01:04;;;;;;;15.73;6.47;;;;;;;;;;4939861;29;20034;-82
2022/10/05 17:03:42;;;;;;;12.95;7.50;;;;;;;;;;4939836;29;20039;-76
2022/10/05 17:06:17;;;;;;;16.92;8.85;;;;;;;;;;4939763;29;20082;-76
2022/10/05 17:09:02;;;;;;;16.67;9.70;;;;;;;;;;4939474;29;20467;-76
2022/10/05 17:11:31;;;;;;;18.55;9.80;;;;;;;;;;4939757;29;20031;-78
2022/10/05 17:14:06;;;;;;;21.70;10.40;;;;;;;;;;4956797;29;20035;-77
2022/10/05 17:16:53;;;;;;;19.70;9.52;;;;;;;;;;4938997;28;20020;-76
2022/10/05 17:19:38;;;;;;;21.92;11.30;;;;;;;;;;4936993;29;20075;-77
2022/10/05 17:22:04;;;;;;;35.95;10.65;;;;;;;;;;4943268;29;20043;-76
2022/10/05 17:24:40;;;;;;;29.98;12.65;;;;;;;;;;4939233;29;20480;-78
2022/10/05 17:27:16;;;;;;;33.33;13.43;;;;;;;;;;4939368;29;20035;-77
2022/10/05 17:29:53;;;;;;;32.17;16.10;;;;;;;;;;4939245;29;20369;-75
2022/10/05 17:32:19;;;;;;;32.58;15.10;;;;;;;;;;4939457;29;20065;-77
2022/10/05 17:35:00;;;;;;;36.75;18.38;;;;;;;;;;4956480;29;20392;-76
2022/10/05 17:37:27;;;;;;;31.52;15.30;;;;;;;;;;4940837;29;20031;-82
2022/10/05 17:39:56;;;;;;;30.75;15.75;;;;;;;;;;4939498;29;20035;-77
2022/10/05 17:42:33;;;;;;;33.95;18.08;;;;;;;;;;4939337;29;20118;-79
2022/10/05 17:45:19;;;;;;;44.95;21.27;;;;;;;;;;4939024;29;20044;-77
2022/10/05 17:48:03;;;;;;;35.28;17.58;;;;;;;;;;4912017;29;20070;-86
2022/10/05 17:56:18;;;;;;;59.05;26.52;;;;;;;;;;4959351;29;20057;-76
2022/10/05 17:58:44;;;;;;;46.13;24.17;;;;;;;;;;4942600;29;20070;-78
2022/10/05 18:01:15;;;;;;;49.72;24.17;;;;;;;;;;4941088;29;20468;-77
2022/10/05 18:03:50;;;;;;;39.67;21.38;;;;;;;;;;4942143;29;20031;-78
2022/10/05 18:06:27;;;;;;;31.52;17.95;;;;;;;;;;4941204;29;20024;-76
2022/10/05 18:09:11;;;;;;;35.10;19.75;;;;;;;;;;4940743;29;20063;-75
2022/10/05 18:11:40;;;;;;;33.08;18.40;;;;;;;;;;4937293;29;20098;-81
2022/10/05 18:14:22;;;;;;;39.45;19.25;;;;;;;;;;4935700;29;20089;-78
2022/10/05 18:17:02;;;;;;;58.70;29.48;;;;;;;;;;4957886;28;20023;-84
2022/10/05 18:19:32;;;;;;;81.30;36.80;;;;;;;;;;4970454;28;20049;-75
2022/10/05 18:22:16;;;;;;;88.88;37.13;;;;;;;;;;4948225;29;20031;-85
2022/10/05 18:24:42;;;;;;;86.88;39.38;;;;;;;;;;4944695;28;20062;-76
2022/10/05 18:27:17;;;;;;;100.13;39.35;;;;;;;;;;4980256;28;20045;-82
2022/10/05 18:30:05;;;;;;;81.38;34.08;;;;;;;;;;4959728;29;20016;-74
2022/10/05 18:32:31;;;;;;;79.03;36.28;;;;;;;;;;4968663;28;20031;-76
2022/10/05 18:35:01;;;;;;;76.15;35.70;;;;;;;;;;4959194;29;20027;-85
2022/10/05 18:37:28;;;;;;;85.32;36.30;;;;;;;;;;4957684;28;20058;-84
2022/10/05 18:39:54;;;;;;;77.20;35.53;;;;;;;;;;4951067;28;20059;-82
2022/10/05 18:42:36;;;;;;;94.05;40.80;;;;;;;;;;4953147;28;20026;-76
2022/10/05 18:45:34;;;;;;;89.72;38.17;;;;;;;;;;4972136;28;20054;-83
2022/10/05 18:48:16;;;;;;;81.60;37.15;;;;;;;;;;4908612;29;20062;-75